createdAt,value
2023-01-18T00:01:02.209Z,-0.02
2023-01-18T00:03:29.235Z,0.38
2023-01-18T00:05:55.767Z,0.27
2023-01-18T00:08:22.363Z,0.28
2023-01-18T00:10:48.930Z,-0.04
2023-01-18T00:13:15.554Z,0.43
2023-01-18T00:15:42.140Z,0.30
2023-01-18T00:18:08.883Z,0.58
2023-01-18T00:20:35.500Z,-0.39
2023-01-18T00:23:02.334Z,0.96
2023-01-18T00:25:29.929Z,1.02
2023-01-18T00:27:57.101Z,-0.23
2023-01-18T00:30:26.856Z,0.69
2023-01-18T00:32:56.241Z,0.30
2023-01-18T00:35:24.160Z,0.27
2023-01-18T00:37:52.249Z,0.37
2023-01-18T00:40:20.289Z,0.73
2023-01-18T00:43:05.761Z,0.50
2023-01-18T00:45:32.709Z,0.36
2023-01-18T00:47:59.303Z,-0.22
2023-01-18T00:50:25.960Z,0.33
2023-01-18T00:52:56.924Z,0.47
2023-01-18T00:55:24.025Z,0.73
2023-01-18T00:57:50.758Z,1.01
2023-01-18T01:00:20.382Z,1.18
2023-01-18T01:02:47.034Z,0.38
2023-01-18T01:05:41.852Z,0.25
2023-01-18T01:08:08.807Z,0.64
2023-01-18T01:10:35.758Z,0.67
2023-01-18T01:13:21.004Z,0.50
2023-01-18T01:16:06.390Z,0.39
2023-01-18T01:18:51.743Z,0.62
2023-01-18T01:21:36.783Z,0.64
2023-01-18T01:24:22.443Z,0.28
2023-01-18T01:26:49.101Z,0.29
2023-01-18T01:29:15.983Z,0.94
2023-01-18T01:31:42.633Z,0.97
2023-01-18T01:34:09.989Z,1.10
2023-01-18T01:36:36.984Z,-1.13
2023-01-18T01:39:03.835Z,-0.22
2023-01-18T01:41:32.645Z,0.22
2023-01-18T01:44:06.399Z,0.40
2023-01-18T01:47:00.224Z,0.77
2023-01-18T01:49:46.674Z,0.69
2023-01-18T01:52:16.763Z,0.55
2023-01-18T01:55:14.493Z,0.78
2023-01-18T01:57:48.665Z,-0.01
2023-01-18T02:00:20.381Z,1.16
2023-01-18T02:02:56.425Z,1.06
2023-01-18T02:05:24.279Z,0.62
2023-01-18T02:07:51.296Z,0.33
2023-01-18T02:10:17.997Z,0.91
2023-01-18T02:12:48.406Z,0.86
2023-01-18T02:15:15.570Z,1.10
2023-01-18T02:18:22.692Z,0.95
2023-01-18T02:21:10.840Z,0.65
2023-01-18T02:24:11.660Z,-0.05
2023-01-18T02:26:52.525Z,1.03
2023-01-18T02:29:37.696Z,0.79
2023-01-18T02:32:32.524Z,-0.21
2023-01-18T02:35:14.627Z,0.45
2023-01-18T02:37:49.877Z,0.35
2023-01-18T02:40:27.732Z,0.11
2023-01-18T02:43:15.252Z,0.27
2023-01-18T02:46:03.458Z,0.60
2023-01-18T02:48:37.815Z,0.87
2023-01-18T02:51:05.187Z,0.82
2023-01-18T02:53:36.030Z,0.27
2023-01-18T02:56:08.609Z,0.31
2023-01-18T02:58:41.338Z,0.59
2023-01-18T03:01:17.997Z,0.94
2023-01-18T03:03:48.805Z,1.04
2023-01-18T03:06:15.456Z,-0.15
2023-01-18T03:08:47.393Z,0.66
2023-01-18T03:11:25.909Z,0.81
2023-01-18T03:14:13.692Z,0.80
2023-01-18T03:16:59.432Z,-0.01
2023-01-18T03:20:08.745Z,0.34
2023-01-18T03:23:12.312Z,0.59
2023-01-18T03:25:41.823Z,0.38
2023-01-18T03:28:32.424Z,-0.33
2023-01-18T03:31:22.212Z,0.20
2023-01-18T03:33:55.619Z,0.18
2023-01-18T03:36:27.690Z,-0.07
2023-01-18T03:39:06.159Z,-0.22
2023-01-18T03:41:38.338Z,-0.27
2023-01-18T03:44:12.814Z,-0.08
2023-01-18T03:46:40.628Z,-0.26
2023-01-18T03:49:08.002Z,-0.10
2023-01-18T03:51:48.501Z,0.29
2023-01-18T03:54:24.725Z,0.17
2023-01-18T03:57:01.184Z,-0.04
2023-01-18T03:59:33.867Z,-1.36
2023-01-18T04:02:02.960Z,-0.20
2023-01-18T04:04:29.638Z,-0.98
2023-01-18T04:06:57.929Z,-1.08
2023-01-18T04:09:25.628Z,0.32
2023-01-18T04:11:52.433Z,0.51
2023-01-18T04:14:19.327Z,0.79
2023-01-18T04:16:45.958Z,0.60
2023-01-18T04:19:12.574Z,0.21
2023-01-18T04:21:39.148Z,0.72
2023-01-18T04:24:05.997Z,0.96
2023-01-18T04:26:34.264Z,1.03
2023-01-18T04:29:01.366Z,0.65
2023-01-18T04:31:28.205Z,0.67
2023-01-18T04:33:55.106Z,-0.06
2023-01-18T04:36:22.319Z,0.75
2023-01-18T04:38:54.007Z,1.06
2023-01-18T04:41:21.401Z,0.43
2023-01-18T04:43:47.985Z,1.33
2023-01-18T04:46:15.324Z,1.49
2023-01-18T04:48:42.591Z,1.62
2023-01-18T04:51:14.109Z,1.47
2023-01-18T04:53:42.216Z,0.78
2023-01-18T04:56:09.556Z,0.32
2023-01-18T04:58:36.412Z,-0.51
2023-01-18T05:01:04.506Z,0.99
2023-01-18T05:03:31.637Z,0.10
2023-01-18T05:05:58.156Z,0.40
2023-01-18T05:08:24.779Z,-0.20
2023-01-18T05:10:51.310Z,0.93
2023-01-18T05:13:17.887Z,1.11
2023-01-18T05:15:44.521Z,0.58
2023-01-18T05:18:11.354Z,1.29
2023-01-18T05:20:37.991Z,0.68
2023-01-18T05:23:10.936Z,0.82
2023-01-18T05:25:39.121Z,1.21
2023-01-18T05:28:07.250Z,1.12
2023-01-18T05:30:37.889Z,0.73
2023-01-18T05:33:04.684Z,1.15
2023-01-18T05:35:32.075Z,0.87
2023-01-18T05:37:58.766Z,1.14
2023-01-18T05:40:25.376Z,1.41
2023-01-18T05:42:51.947Z,1.39
2023-01-18T05:45:18.481Z,1.12
2023-01-18T05:47:45.414Z,1.65
2023-01-18T05:50:12.052Z,1.73
2023-01-18T05:52:38.704Z,1.66
2023-01-18T05:55:05.805Z,0.80
2023-01-18T05:57:32.455Z,0.53
2023-01-18T05:59:59.805Z,-1.12
2023-01-18T06:02:26.474Z,1.65
2023-01-18T06:04:52.997Z,1.81
2023-01-18T06:07:19.582Z,1.62
2023-01-18T06:09:46.126Z,1.50
2023-01-18T06:12:12.752Z,1.52
2023-01-18T06:14:39.366Z,1.78
2023-01-18T06:17:08.796Z,1.91
2023-01-18T06:19:36.105Z,1.97
2023-01-18T06:22:02.699Z,2.02
2023-01-18T06:24:29.252Z,1.98
2023-01-18T06:26:55.851Z,2.07
2023-01-18T06:29:22.385Z,2.14
2023-01-18T06:31:49.023Z,2.15
2023-01-18T06:34:15.631Z,2.19
2023-01-18T06:36:42.361Z,1.38
2023-01-18T06:39:08.961Z,2.15
2023-01-18T06:41:35.641Z,2.19
2023-01-18T06:44:02.199Z,2.19
2023-01-18T06:46:29.536Z,1.24
2023-01-18T06:48:56.274Z,2.24
2023-01-18T06:51:22.920Z,2.18
2023-01-18T06:53:50.092Z,1.76
2023-01-18T06:56:18.067Z,2.24
2023-01-18T06:58:44.862Z,2.26
2023-01-18T07:01:11.691Z,2.12
2023-01-18T07:03:38.932Z,2.14
2023-01-18T07:06:07.443Z,1.94
2023-01-18T07:08:35.507Z,2.12
2023-01-18T07:11:07.586Z,1.12
2023-01-18T07:13:34.522Z,2.08
2023-01-18T07:16:02.190Z,1.36
2023-01-18T07:18:30.314Z,2.18
2023-01-18T07:21:02.219Z,2.29
2023-01-18T07:23:29.875Z,2.31
2023-01-18T07:26:01.109Z,2.30
2023-01-18T07:28:28.846Z,2.17
2023-01-18T07:30:55.633Z,2.33
2023-01-18T07:33:22.364Z,1.39
2023-01-18T07:35:51.136Z,2.27
2023-01-18T07:38:18.602Z,2.26
2023-01-18T07:40:46.687Z,2.24
2023-01-18T07:43:14.521Z,2.00
2023-01-18T07:45:41.319Z,2.34
2023-01-18T07:48:08.009Z,2.35
2023-01-18T07:50:34.698Z,2.21
2023-01-18T07:53:08.492Z,1.90
2023-01-18T07:55:35.481Z,1.91
2023-01-18T07:58:02.157Z,1.21
2023-01-18T08:00:28.799Z,2.26
2023-01-18T08:02:57.585Z,1.25
2023-01-18T08:05:27.642Z,2.25
2023-01-18T08:07:54.184Z,2.32
2023-01-18T08:10:21.236Z,2.28
2023-01-18T08:12:47.920Z,1.94
2023-01-18T08:15:14.738Z,1.98
2023-01-18T08:17:42.332Z,2.29
2023-01-18T08:20:09.655Z,2.25
2023-01-18T08:22:36.627Z,2.37
2023-01-18T08:25:04.073Z,2.14
2023-01-18T08:27:30.720Z,2.35
2023-01-18T08:29:57.400Z,2.43
2023-01-18T08:32:24.192Z,2.39
2023-01-18T08:34:51.495Z,0.94
2023-01-18T08:37:18.073Z,1.93
2023-01-18T08:39:44.655Z,1.99
2023-01-18T08:42:12.540Z,1.61
2023-01-18T08:44:39.268Z,1.67
2023-01-18T08:47:05.831Z,0.99
2023-01-18T08:49:32.743Z,1.98
2023-01-18T08:51:59.305Z,1.63
2023-01-18T08:54:26.052Z,1.88
2023-01-18T08:56:52.840Z,1.72
2023-01-18T08:59:20.033Z,1.93
2023-01-18T09:01:46.685Z,2.07
2023-01-18T09:04:13.844Z,2.04
2023-01-18T09:06:40.580Z,2.12
2023-01-18T09:09:07.336Z,2.20
2023-01-18T09:11:33.875Z,2.07
2023-01-18T09:14:02.142Z,2.25
2023-01-18T09:16:30.449Z,2.37
2023-01-18T09:18:58.300Z,2.37
2023-01-18T09:21:25.008Z,2.36
2023-01-18T09:23:51.586Z,2.24
2023-01-18T09:26:20.592Z,2.44
2023-01-18T09:28:49.749Z,2.43
2023-01-18T09:31:16.876Z,2.42
2023-01-18T09:33:52.339Z,2.47
2023-01-18T09:36:21.525Z,2.55
2023-01-18T09:38:48.218Z,2.54
2023-01-18T09:41:44.913Z,2.56
2023-01-18T09:44:29.615Z,2.58
2023-01-18T09:47:02.964Z,2.60
2023-01-18T09:49:40.720Z,2.53
2023-01-18T09:52:24.789Z,2.44
2023-01-18T09:55:15.229Z,1.60
2023-01-18T09:57:44.922Z,2.48
2023-01-18T10:00:32.327Z,2.47
2023-01-18T10:03:04.833Z,2.57
2023-01-18T10:05:34.659Z,2.58
2023-01-18T10:08:07.942Z,2.45
2023-01-18T10:10:38.991Z,2.57
2023-01-18T10:13:18.167Z,2.64
2023-01-18T10:15:45.595Z,2.66
2023-01-18T10:18:16.560Z,2.48
2023-01-18T10:21:01.399Z,2.45
2023-01-18T10:23:44.297Z,2.38
2023-01-18T10:26:26.258Z,2.45
2023-01-18T10:28:53.203Z,2.58
2023-01-18T10:31:39.597Z,2.52
2023-01-18T10:34:16.627Z,2.51
2023-01-18T10:36:48.082Z,2.60
2023-01-18T10:39:30.029Z,2.57
2023-01-18T10:42:06.021Z,2.19
2023-01-18T10:44:33.402Z,2.18
2023-01-18T10:47:01.131Z,1.97
2023-01-18T10:49:39.922Z,2.18
2023-01-18T10:52:31.914Z,2.27
2023-01-18T10:55:07.404Z,2.23
2023-01-18T10:57:47.998Z,2.28
2023-01-18T11:00:23.652Z,2.34
2023-01-18T11:02:52.960Z,2.08
2023-01-18T11:05:30.471Z,2.42
2023-01-18T11:08:20.365Z,2.52
2023-01-18T11:10:57.051Z,2.55
2023-01-18T11:13:31.618Z,1.65
2023-01-18T11:16:09.949Z,2.53
2023-01-18T11:18:36.735Z,2.44
2023-01-18T11:21:08.486Z,2.48
2023-01-18T11:23:35.783Z,2.11
2023-01-18T11:26:07.373Z,2.02
2023-01-18T11:28:33.982Z,2.07
2023-01-18T11:31:08.414Z,2.25
2023-01-18T11:33:40.240Z,2.24
2023-01-18T11:36:07.228Z,1.28
2023-01-18T11:38:34.906Z,2.38
2023-01-18T11:41:07.657Z,2.48
2023-01-18T11:43:37.768Z,2.40
2023-01-18T11:46:17.959Z,2.59
2023-01-18T11:48:53.443Z,2.64
2023-01-18T11:51:29.788Z,2.72
2023-01-18T11:54:18.764Z,2.58
2023-01-18T11:56:50.993Z,2.66
2023-01-18T11:59:33.723Z,2.58
2023-01-18T12:02:24.078Z,2.55
2023-01-18T12:05:22.390Z,2.56
2023-01-18T12:08:06.433Z,1.49
2023-01-18T12:11:15.884Z,2.59
2023-01-18T12:13:52.698Z,0.75
2023-01-18T12:16:31.012Z,1.83
2023-01-18T12:19:32.898Z,2.23
2023-01-18T12:22:29.589Z,2.46
2023-01-18T12:25:55.651Z,2.61
2023-01-18T12:29:03.810Z,2.69
2023-01-18T12:31:33.445Z,2.73
2023-01-18T12:34:14.028Z,2.75
2023-01-18T12:37:20.470Z,2.78
2023-01-18T12:40:24.836Z,2.68
2023-01-18T12:43:00.136Z,2.75
2023-01-18T12:45:38.985Z,2.49
2023-01-18T12:48:33.075Z,2.78
2023-01-18T12:51:00.528Z,2.79
2023-01-18T12:53:41.258Z,2.79
2023-01-18T12:56:17.104Z,2.78
2023-01-18T12:58:44.131Z,2.84
2023-01-18T13:01:18.859Z,2.85
2023-01-18T13:03:49.492Z,2.85
2023-01-18T13:06:18.888Z,2.65
2023-01-18T13:08:58.397Z,2.63
2023-01-18T13:11:30.152Z,2.65
2023-01-18T13:14:14.823Z,2.73
2023-01-18T13:16:57.556Z,2.59
2023-01-18T13:19:31.855Z,2.68
2023-01-18T13:22:40.684Z,2.69
2023-01-18T13:25:26.450Z,2.77
2023-01-18T13:28:02.663Z,2.76
2023-01-18T13:30:56.824Z,2.81
2023-01-18T13:33:28.959Z,2.72
2023-01-18T13:36:01.680Z,2.79
2023-01-18T13:38:41.009Z,2.69
2023-01-18T13:41:11.895Z,2.73
2023-01-18T13:43:38.481Z,2.79
2023-01-18T13:46:07.944Z,2.87
2023-01-18T13:48:55.442Z,2.90
2023-01-18T13:51:40.454Z,2.89
2023-01-18T13:54:09.055Z,2.73
2023-01-18T13:56:37.557Z,2.33
2023-01-18T13:59:12.994Z,2.65
2023-01-18T14:01:43.932Z,2.55
2023-01-18T14:04:19.433Z,2.77
2023-01-18T14:06:46.991Z,2.80
2023-01-18T14:09:16.055Z,2.79
2023-01-18T14:11:51.590Z,2.74
2023-01-18T14:14:18.429Z,2.69
2023-01-18T14:17:20.891Z,2.83
2023-01-18T14:19:47.433Z,2.78
2023-01-18T14:22:36.799Z,2.78
2023-01-18T14:25:40.282Z,2.79
2023-01-18T14:28:16.876Z,2.04
2023-01-18T14:30:47.402Z,2.78
2023-01-18T14:33:47.035Z,2.84
2023-01-18T14:36:23.639Z,2.82
2023-01-18T14:39:13.709Z,2.78
2023-01-18T14:41:43.473Z,2.71
2023-01-18T14:44:25.897Z,2.56
2023-01-18T14:46:57.693Z,2.42
2023-01-18T14:49:31.453Z,2.41
2023-01-18T14:51:58.782Z,2.45
2023-01-18T14:54:25.985Z,2.47
2023-01-18T14:57:01.370Z,2.57
2023-01-18T14:59:31.067Z,2.38
2023-01-18T15:02:03.617Z,2.41
2023-01-18T15:04:33.064Z,2.67
2023-01-18T15:07:01.490Z,2.70
2023-01-18T15:09:32.249Z,2.63
2023-01-18T15:12:02.961Z,2.55
2023-01-18T15:14:33.328Z,2.67
2023-01-18T15:17:01.593Z,2.60
2023-01-18T15:19:38.537Z,1.53
2023-01-18T15:22:07.594Z,2.65
2023-01-18T15:24:40.530Z,1.37
2023-01-18T15:27:12.469Z,2.53
2023-01-18T15:29:39.096Z,2.42
2023-01-18T15:32:12.980Z,2.34
2023-01-18T15:34:45.244Z,1.95
2023-01-18T15:37:21.840Z,2.07
2023-01-18T15:39:58.146Z,2.42
2023-01-18T15:42:42.935Z,2.49
2023-01-18T15:45:19.603Z,2.55
2023-01-18T15:47:50.167Z,2.60
2023-01-18T15:50:20.151Z,2.62
2023-01-18T15:52:53.900Z,2.65
2023-01-18T15:55:28.258Z,2.63
2023-01-18T15:58:01.960Z,2.58
2023-01-18T16:00:53.205Z,1.59
2023-01-18T16:03:23.448Z,2.58
2023-01-18T16:06:16.757Z,2.51
2023-01-18T16:09:16.254Z,2.55
2023-01-18T16:11:54.039Z,2.51
2023-01-18T16:14:27.717Z,2.41
2023-01-18T16:16:56.559Z,2.41
2023-01-18T16:19:30.689Z,2.48
2023-01-18T16:22:25.298Z,2.49
2023-01-18T16:25:01.425Z,2.48
2023-01-18T16:27:31.236Z,2.37
2023-01-18T16:30:00.323Z,2.41
2023-01-18T16:32:29.557Z,2.39
2023-01-18T16:35:00.615Z,2.14
2023-01-18T16:37:27.745Z,2.30
2023-01-18T16:39:55.382Z,2.28
2023-01-18T16:42:29.539Z,2.31
2023-01-18T16:45:04.151Z,2.28
2023-01-18T16:47:30.766Z,2.25
2023-01-18T16:49:59.272Z,1.77
2023-01-18T16:52:26.352Z,1.81
2023-01-18T16:54:53.076Z,1.38
2023-01-18T16:57:23.786Z,1.47
2023-01-18T16:59:50.590Z,1.98
2023-01-18T17:02:17.266Z,2.09
2023-01-18T17:04:45.407Z,1.26
2023-01-18T17:07:12.405Z,2.13
2023-01-18T17:09:47.863Z,2.14
2023-01-18T17:12:15.776Z,2.28
2023-01-18T17:14:42.354Z,2.38
2023-01-18T17:17:10.289Z,-0.06
2023-01-18T17:19:37.975Z,1.99
2023-01-18T17:22:06.405Z,2.41
2023-01-18T17:24:33.262Z,2.34
2023-01-18T17:27:01.181Z,2.09
2023-01-18T17:29:27.932Z,2.32
2023-01-18T17:31:54.508Z,2.32
2023-01-18T17:38:51.891Z,2.02
2023-01-18T17:41:27.749Z,2.24
2023-01-18T17:43:55.497Z,2.32
2023-01-18T17:46:22.060Z,2.33
2023-01-18T17:48:48.719Z,2.31
2023-01-18T17:51:15.684Z,2.23
2023-01-18T17:53:42.446Z,2.04
2023-01-18T17:56:15.191Z,1.92
2023-01-18T17:58:45.836Z,1.45
2023-01-18T18:01:14.403Z,2.15
2023-01-18T18:03:45.314Z,2.26
2023-01-18T18:06:14.429Z,2.34
2023-01-18T18:08:41.072Z,2.32
2023-01-18T18:11:12.714Z,2.32
2023-01-18T18:13:41.819Z,-0.17
2023-01-18T18:16:13.876Z,2.49
2023-01-18T18:18:43.206Z,2.53
2023-01-18T18:21:10.969Z,2.58
2023-01-18T18:23:38.273Z,1.88
2023-01-18T18:26:05.348Z,1.76
2023-01-18T18:28:33.391Z,2.51
2023-01-18T18:31:01.128Z,2.60
2023-01-18T18:33:29.048Z,1.84
2023-01-18T18:35:56.098Z,2.41
2023-01-18T18:38:23.334Z,2.58
2023-01-18T18:40:50.932Z,2.52
2023-01-18T18:43:18.178Z,2.39
2023-01-18T18:45:45.763Z,1.51
2023-01-18T18:48:13.248Z,2.31
2023-01-18T18:50:40.563Z,2.29
2023-01-18T18:53:07.422Z,2.39
2023-01-18T18:55:34.080Z,2.41
2023-01-18T18:58:01.111Z,1.22
2023-01-18T19:00:27.690Z,2.32
2023-01-18T19:03:02.649Z,2.10
2023-01-18T19:05:30.906Z,2.22
2023-01-18T19:07:57.553Z,2.19
2023-01-18T19:10:27.558Z,2.23
2023-01-18T19:12:55.000Z,2.29
2023-01-18T19:15:22.203Z,2.32
2023-01-18T19:17:52.853Z,1.69
2023-01-18T19:20:20.448Z,2.38
2023-01-18T19:22:48.097Z,2.41
2023-01-18T19:25:14.997Z,2.36
2023-01-18T19:27:41.787Z,2.25
2023-01-18T19:30:12.635Z,2.39
2023-01-18T19:32:39.946Z,2.41
2023-01-18T19:35:07.294Z,2.41
2023-01-18T19:37:33.894Z,2.30
2023-01-18T19:40:00.481Z,2.25
2023-01-18T19:42:27.073Z,2.14
2023-01-18T19:44:56.129Z,1.33
2023-01-18T19:47:25.358Z,2.22
2023-01-18T19:49:52.446Z,2.12
2023-01-18T19:52:19.235Z,1.61
2023-01-18T19:54:45.977Z,2.43
2023-01-18T19:57:12.526Z,2.50
2023-01-18T19:59:39.075Z,2.45
2023-01-18T20:02:05.887Z,2.38
2023-01-18T20:04:33.856Z,1.74
2023-01-18T20:07:00.515Z,2.33
2023-01-18T20:09:38.520Z,2.30
2023-01-18T20:12:12.416Z,2.38
2023-01-18T20:14:41.857Z,2.45
2023-01-18T20:17:16.067Z,2.49
2023-01-18T20:19:44.588Z,2.50
2023-01-18T20:22:11.171Z,2.23
2023-01-18T20:24:37.819Z,2.44
2023-01-18T20:27:15.226Z,2.45
2023-01-18T20:29:42.622Z,2.34
2023-01-18T20:32:16.166Z,2.24
2023-01-18T20:34:44.688Z,2.38
2023-01-18T20:37:12.988Z,2.48
2023-01-18T20:39:39.918Z,1.76
2023-01-18T20:42:06.594Z,2.49
2023-01-18T20:44:33.186Z,2.43
2023-01-18T20:46:59.843Z,2.45
2023-01-18T20:49:37.336Z,1.25
2023-01-18T20:52:05.231Z,2.38
2023-01-18T20:54:31.959Z,2.16
2023-01-18T20:56:59.981Z,2.34
2023-01-18T20:59:26.619Z,2.43
2023-01-18T21:01:53.437Z,2.58
2023-01-18T21:04:20.680Z,2.53
2023-01-18T21:06:49.744Z,2.54
2023-01-18T21:09:16.752Z,2.45
2023-01-18T21:11:44.300Z,2.35
2023-01-18T21:14:11.440Z,2.37
2023-01-18T21:16:38.174Z,2.41
2023-01-18T21:19:04.930Z,2.54
2023-01-18T21:21:31.957Z,2.41
2023-01-18T21:23:59.801Z,2.34
2023-01-18T21:26:26.583Z,2.44
2023-01-18T21:28:53.705Z,0.62
2023-01-18T21:31:20.811Z,2.45
2023-01-18T21:33:48.242Z,2.38
2023-01-18T21:36:18.002Z,2.19
2023-01-18T21:38:44.717Z,2.60
2023-01-18T21:41:30.252Z,2.51
2023-01-18T21:44:15.556Z,2.47
2023-01-18T21:46:51.061Z,2.47
2023-01-18T21:50:10.974Z,0.97
2023-01-18T21:52:42.585Z,2.41
2023-01-18T21:55:09.719Z,2.34
2023-01-18T21:57:36.640Z,2.42
2023-01-18T22:00:04.889Z,2.47
2023-01-18T22:02:33.809Z,1.86
2023-01-18T22:05:00.609Z,2.51
2023-01-18T22:07:29.917Z,1.96
2023-01-18T22:10:05.088Z,2.54
2023-01-18T22:12:35.114Z,2.44
2023-01-18T22:15:03.038Z,2.44
2023-01-18T22:17:30.543Z,2.38
2023-01-18T22:19:57.497Z,2.45
2023-01-18T22:22:24.081Z,2.08
2023-01-18T22:24:50.744Z,2.29
2023-01-18T22:27:17.372Z,2.55
2023-01-18T22:29:43.982Z,1.49
2023-01-18T22:32:10.552Z,2.48
2023-01-18T22:34:37.135Z,2.47
2023-01-18T22:37:03.907Z,2.47
2023-01-18T22:39:30.516Z,1.36
2023-01-18T22:41:57.266Z,2.45
2023-01-18T22:44:23.976Z,2.44
2023-01-18T22:46:50.736Z,2.24
2023-01-18T22:49:17.401Z,2.48
2023-01-18T22:51:44.109Z,2.47
2023-01-18T22:54:10.671Z,2.41
2023-01-18T22:56:37.271Z,2.46
2023-01-18T22:59:03.845Z,2.53
2023-01-18T23:01:32.383Z,2.57
2023-01-18T23:04:01.924Z,2.23
2023-01-18T23:06:42.179Z,2.39
2023-01-18T23:09:10.372Z,1.53
2023-01-18T23:11:37.732Z,2.54
2023-01-18T23:14:23.522Z,2.56
2023-01-18T23:17:08.847Z,2.43
2023-01-18T23:19:35.712Z,2.53
2023-01-18T23:22:06.890Z,1.37
2023-01-18T23:24:35.599Z,2.62
2023-01-18T23:27:03.275Z,2.63
2023-01-18T23:29:30.231Z,2.56
2023-01-18T23:31:57.499Z,2.43
2023-01-18T23:34:25.114Z,2.30
2023-01-18T23:36:51.724Z,2.31
2023-01-18T23:39:37.124Z,2.32
2023-01-18T23:42:22.800Z,2.42
2023-01-18T23:45:07.909Z,2.42
2023-01-18T23:47:54.281Z,2.42
2023-01-18T23:50:40.040Z,2.37
2023-01-18T23:53:30.088Z,2.19
2023-01-18T23:55:56.698Z,1.78
2023-01-18T23:58:23.280Z,2.49
